Time;durP1;ratioP1;P1;durP2;ratioP2;P2;SDS_P1;SDS_P2;PMS_P1;PMS_P2;Temp;Humidity;BMP_temperature;BMP_pressure;BME280_temperature;BME280_humidity;BME280_pressure;Samples;Min_cycle;Max_cycle;Signal;HPM_P1;HPM_P2
2022/03/31 00:09:44;;;;;;;5.40;2.00;;;3.50;99.90;;;;;;6236091;22;20028;-71
2022/03/31 00:12:10;;;;;;;7.55;2.10;;;3.40;99.90;;;;;;6218171;23;20027;-70
2022/03/31 00:14:38;;;;;;;4.35;1.80;;;3.50;99.90;;;;;;6218782;23;20008;-71
2022/03/31 00:17:08;;;;;;;3.97;1.63;;;3.40;99.90;;;;;;6218247;23;20013;-70
2022/03/31 00:19:34;;;;;;;3.90;1.90;;;3.40;99.90;;;;;;6243625;23;20009;-71
2022/03/31 00:22:28;;;;;;;4.88;1.92;;;3.40;99.90;;;;;;6218625;23;20007;-71
2022/03/31 00:24:57;;;;;;;7.28;2.17;;;3.30;99.90;;;;;;6217326;23;20023;-70
2022/03/31 00:27:23;;;;;;;3.55;1.88;;;3.30;99.90;;;;;;6243634;23;20003;-70
2022/03/31 00:29:50;;;;;;;6.97;1.70;;;3.20;99.90;;;;;;6243563;23;20010;-72
2022/03/31 00:32:16;;;;;;;6.05;2.00;;;3.20;99.90;;;;;;6217592;23;20008;-71
2022/03/31 00:34:42;;;;;;;4.35;1.70;;;3.20;99.90;;;;;;6243542;23;20021;-70
2022/03/31 00:37:41;;;;;;;5.85;2.17;;;3.20;99.90;;;;;;6243606;23;20004;-71
2022/03/31 00:40:11;;;;;;;5.38;1.70;;;3.10;99.90;;;;;;6243680;23;20016;-70
2022/03/31 00:42:45;;;;;;;8.10;2.00;;;3.10;99.90;;;;;;6217817;23;20000;-70
2022/03/31 00:45:18;;;;;;;6.47;1.83;;;3.10;99.90;;;;;;6217934;23;20000;-71
2022/03/31 00:47:44;;;;;;;6.75;1.80;;;3.10;99.90;;;;;;6217752;23;20013;-71
2022/03/31 00:50:12;;;;;;;4.90;1.48;;;3.10;99.90;;;;;;6243315;23;20022;-71
2022/03/31 00:52:39;;;;;;;3.40;1.77;;;3.10;99.90;;;;;;6218339;23;20005;-72
2022/03/31 00:55:08;;;;;;;8.57;2.47;;;3.10;99.90;;;;;;6217873;23;20048;-69
2022/03/31 00:57:35;;;;;;;6.80;2.17;;;3.20;99.90;;;;;;6243175;23;20048;-71
2022/03/31 01:00:02;;;;;;;7.53;2.00;;;3.20;99.90;;;;;;6210751;23;20032;-71
2022/03/31 01:02:32;;;;;;;6.20;1.58;;;3.20;99.90;;;;;;6213922;23;20024;-71
2022/03/31 01:05:01;;;;;;;;;;;3.10;99.90;;;;;;6187794;23;20012;-70
2022/03/31 01:07:27;;;;;;;5.13;1.80;;;3.10;99.90;;;;;;6187778;23;19916;-70
2022/03/31 01:09:56;;;;;;;6.03;2.10;;;3.10;99.90;;;;;;6188328;23;20069;-70
2022/03/31 01:12:25;;;;;;;3.28;1.83;;;3.10;99.90;;;;;;6158374;23;20033;-70
2022/03/31 01:15:15;;;;;;;7.13;1.90;;;3.00;99.90;;;;;;6158290;23;20013;-70
2022/03/31 01:17:43;;;;;;;8.68;2.33;;;3.00;99.90;;;;;;6158226;23;20008;-70
2022/03/31 01:20:14;;;;;;;6.28;2.38;;;3.00;99.90;;;;;;6183299;23;20001;-70
2022/03/31 01:22:43;;;;;;;4.65;2.20;;;3.00;99.90;;;;;;6183804;23;20017;-71
2022/03/31 01:25:09;;;;;;;8.55;2.80;;;3.00;99.90;;;;;;6182617;23;20002;-71
2022/03/31 01:27:44;;;;;;;6.60;2.85;;;3.00;99.90;;;;;;6158390;23;20024;-71
2022/03/31 01:30:16;;;;;;;9.88;3.03;;;3.00;99.90;;;;;;6183148;23;20049;-71
2022/03/31 01:32:44;;;;;;;7.18;3.22;;;3.00;99.90;;;;;;6183344;23;20017;-72
2022/03/31 01:35:11;;;;;;;7.78;3.38;;;3.00;99.90;;;;;;6183444;23;20021;-71
2022/03/31 01:37:38;;;;;;;8.48;3.67;;;3.00;99.90;;;;;;6182798;23;20001;-70
2022/03/31 01:40:06;;;;;;;7.50;4.00;;;3.00;99.90;;;;;;6158261;23;20013;-71
2022/03/31 01:42:34;;;;;;;6.78;4.00;;;3.00;99.90;;;;;;6158389;23;20083;-71
2022/03/31 01:45:00;;;;;;;6.43;3.75;;;3.00;99.90;;;;;;6158347;23;20128;-72
2022/03/31 01:47:26;;;;;;;8.38;3.45;;;3.00;99.90;;;;;;6158286;23;20009;-69
2022/03/31 01:49:53;;;;;;;8.23;3.92;;;3.00;99.90;;;;;;6158412;23;20017;-70
2022/03/31 01:52:21;;;;;;;7.93;3.85;;;3.00;99.90;;;;;;6158207;23;20001;-71
2022/03/31 01:54:50;;;;;;;6.70;3.97;;;3.00;99.90;;;;;;6182768;23;20002;-70
2022/03/31 01:57:17;;;;;;;10.07;4.55;;;3.00;99.90;;;;;;6158196;23;20008;-71
2022/03/31 01:59:43;;;;;;;10.15;5.03;;;3.00;99.90;;;;;;6182719;23;20018;-71
2022/03/31 02:02:14;;;;;;;10.50;4.75;;;3.00;99.90;;;;;;6182426;23;20018;-72
2022/03/31 02:04:41;;;;;;;10.75;4.82;;;2.90;99.90;;;;;;6158424;23;20053;-69
2022/03/31 02:07:08;;;;;;;9.07;4.72;;;2.90;99.90;;;;;;6182735;23;20018;-70
2022/03/31 02:09:34;;;;;;;7.13;4.75;;;2.90;99.90;;;;;;6157877;23;20001;-70
2022/03/31 02:12:01;;;;;;;13.55;5.40;;;2.90;99.90;;;;;;6183907;23;20048;-70
2022/03/31 02:14:28;;;;;;;10.60;4.72;;;2.90;99.90;;;;;;6212517;23;20013;-71
2022/03/31 02:16:55;;;;;;;10.38;4.88;;;2.90;99.90;;;;;;6189798;23;20020;-70
2022/03/31 02:19:21;;;;;;;9.50;4.28;;;2.80;99.90;;;;;;6189766;23;19997;-70
2022/03/31 02:21:49;;;;;;;7.00;4.80;;;2.80;99.90;;;;;;6214493;23;20049;-70
2022/03/31 02:24:16;;;;;;;9.30;4.05;;;2.80;99.90;;;;;;6214563;23;20004;-70
2022/03/31 02:26:42;;;;;;;8.18;4.47;;;2.80;99.90;;;;;;6214465;23;20021;-70
2022/03/31 02:29:08;;;;;;;11.05;4.88;;;2.80;99.90;;;;;;6189101;23;20008;-70
2022/03/31 02:31:34;;;;;;;6.45;4.18;;;2.80;99.90;;;;;;6189271;23;20017;-71
2022/03/31 02:34:00;;;;;;;7.57;4.13;;;2.80;99.90;;;;;;6189256;23;20069;-70
2022/03/31 02:36:26;;;;;;;7.65;4.32;;;2.90;99.90;;;;;;6189444;23;20021;-69
2022/03/31 02:38:54;;;;;;;11.68;4.80;;;2.80;99.90;;;;;;6214210;23;20079;-71
2022/03/31 02:41:21;;;;;;;9.15;4.85;;;2.70;99.90;;;;;;6189686;23;20021;-69
2022/03/31 02:43:47;;;;;;;9.93;4.55;;;2.80;99.90;;;;;;6189425;23;20017;-71
2022/03/31 02:46:13;;;;;;;7.95;4.82;;;2.70;99.90;;;;;;6213797;23;20016;-71
2022/03/31 02:48:40;;;;;;;9.93;5.47;;;2.70;99.90;;;;;;6189347;23;20008;-70
2022/03/31 02:51:06;;;;;;;11.32;5.75;;;2.70;99.90;;;;;;6189391;23;20001;-70
2022/03/31 02:56:16;;;;;;;10.50;5.72;;;2.80;99.90;;;;;;6213960;23;20009;-70
2022/03/31 02:58:45;;;;;;;10.57;5.57;;;2.80;99.90;;;;;;6214318;23;20021;-71
2022/03/31 03:01:14;;;;;;;12.48;6.70;;;2.80;99.90;;;;;;6189391;23;20049;-70
2022/03/31 03:03:40;;;;;;;13.50;6.87;;;2.80;99.90;;;;;;6214359;23;20427;-70
2022/03/31 03:06:07;;;;;;;13.52;6.38;;;2.80;99.90;;;;;;6189448;23;20031;-70
2022/03/31 03:08:36;;;;;;;10.32;6.28;;;2.80;99.90;;;;;;6189273;23;20055;-71
2022/03/31 03:11:02;;;;;;;11.27;6.13;;;2.80;99.90;;;;;;6189454;23;20510;-70
2022/03/31 03:13:28;;;;;;;13.43;6.78;;;2.80;99.90;;;;;;6213930;23;20021;-70
2022/03/31 03:15:54;;;;;;;8.93;6.30;;;2.80;99.90;;;;;;6189166;23;20016;-71
2022/03/31 03:18:20;;;;;;;10.80;6.82;;;2.80;99.90;;;;;;6213969;23;20008;-71
2022/03/31 03:20:46;;;;;;;13.75;6.85;;;2.80;99.90;;;;;;6213773;23;20004;-70
2022/03/31 03:23:15;;;;;;;11.88;7.30;;;2.80;99.90;;;;;;6189089;23;20027;-69
2022/03/31 03:25:41;;;;;;;11.18;7.18;;;2.90;99.90;;;;;;6189054;23;20001;-71
2022/03/31 03:28:08;;;;;;;12.48;8.35;;;2.90;99.90;;;;;;6188438;23;20012;-70
2022/03/31 03:30:34;;;;;;;14.27;7.90;;;2.90;99.90;;;;;;6214006;23;20057;-71
2022/03/31 03:33:00;;;;;;;13.95;7.80;;;2.90;99.90;;;;;;6213759;23;20013;-70
2022/03/31 04:03:59;;;;;;;15.68;10.75;;;2.90;99.90;;;;;;6205703;23;20025;-72
2022/03/31 04:06:25;;;;;;;14.63;11.43;;;2.90;99.90;;;;;;6218237;23;20055;-71
2022/03/31 04:08:51;;;;;;;13.85;10.55;;;3.00;99.90;;;;;;6193647;22;20023;-70
2022/03/31 04:11:17;;;;;;;15.38;11.73;;;3.00;99.90;;;;;;6193741;23;20017;-69
2022/03/31 04:13:43;;;;;;;17.42;11.35;;;3.00;99.90;;;;;;6218465;23;20020;-71
2022/03/31 04:16:09;;;;;;;13.98;11.30;;;3.00;99.90;;;;;;6218126;23;20020;-72
2022/03/31 04:18:35;;;;;;;14.13;10.50;;;3.10;99.90;;;;;;6194039;23;20017;-70
2022/03/31 04:21:02;;;;;;;16.27;11.02;;;3.10;99.90;;;;;;6193804;22;20020;-70
2022/03/31 04:23:31;;;;;;;12.50;10.15;;;3.10;99.90;;;;;;6194119;23;20004;-70
2022/03/31 04:25:57;;;;;;;14.15;11.30;;;3.10;99.90;;;;;;6218775;23;20052;-72
2022/03/31 04:28:24;;;;;;;15.52;11.23;;;3.10;99.90;;;;;;6244726;22;20016;-72
2022/03/31 04:30:50;;;;;;;13.80;11.18;;;3.10;99.90;;;;;;6193699;23;20052;-71
2022/03/31 04:33:16;;;;;;;14.50;11.35;;;3.00;99.90;;;;;;6193637;23;20023;-70
2022/03/31 04:35:42;;;;;;;13.55;11.52;;;3.10;99.90;;;;;;6193985;23;20008;-70
2022/03/31 04:38:08;;;;;;;16.95;12.25;;;3.10;99.90;;;;;;6218724;23;20004;-71
2022/03/31 04:40:34;;;;;;;17.23;12.57;;;3.10;99.90;;;;;;6214274;23;20023;-71
2022/03/31 04:43:00;;;;;;;16.33;12.32;;;3.10;99.90;;;;;;6218624;23;20017;-70
2022/03/31 04:45:26;;;;;;;19.00;13.02;;;3.10;99.90;;;;;;6218353;23;20004;-70
2022/03/31 04:47:52;;;;;;;16.30;12.38;;;3.10;99.90;;;;;;6193581;23;20020;-70
2022/03/31 04:50:18;;;;;;;19.08;13.82;;;3.10;99.90;;;;;;6193721;23;20008;-71
2022/03/31 04:52:44;;;;;;;21.52;13.77;;;3.10;99.90;;;;;;6193705;23;20028;-71
2022/03/31 04:55:10;;;;;;;18.00;13.05;;;3.10;99.90;;;;;;6193593;23;20011;-70
2022/03/31 04:57:37;;;;;;;15.93;12.02;;;3.10;99.90;;;;;;6244325;23;20016;-69
2022/03/31 05:00:05;;;;;;;15.13;11.68;;;3.10;99.90;;;;;;6187042;23;20044;-70
2022/03/31 05:02:31;;;;;;;16.13;12.40;;;3.10;99.90;;;;;;6188546;23;20005;-70
2022/03/31 05:04:57;;;;;;;14.70;11.73;;;3.10;99.90;;;;;;6188288;23;20024;-71
2022/03/31 05:07:24;;;;;;;17.05;12.00;;;3.10;99.90;;;;;;6163477;23;20027;-69
2022/03/31 05:09:50;;;;;;;14.85;12.30;;;3.00;99.90;;;;;;6188768;23;20023;-71
2022/03/31 05:12:16;;;;;;;15.55;11.82;;;3.10;99.90;;;;;;6163648;23;20021;-70
2022/03/31 05:14:43;;;;;;;16.08;12.02;;;3.00;99.90;;;;;;6163663;23;20004;-71
2022/03/31 05:17:10;;;;;;;16.00;12.18;;;3.00;99.90;;;;;;6163637;23;20121;-70
2022/03/31 05:19:37;;;;;;;15.73;11.82;;;3.00;99.90;;;;;;6163539;23;20011;-71
2022/03/31 05:22:03;;;;;;;15.10;11.77;;;3.00;99.90;;;;;;6188395;23;20018;-71
2022/03/31 05:24:32;;;;;;;15.48;11.90;;;3.00;99.90;;;;;;6163005;23;20167;-71
2022/03/31 05:26:58;;;;;;;16.88;12.95;;;3.00;99.90;;;;;;6188004;23;20064;-70
2022/03/31 05:29:25;;;;;;;15.80;11.88;;;3.00;99.90;;;;;;6163468;23;20000;-70
2022/03/31 05:31:51;;;;;;;15.35;11.95;;;3.00;99.90;;;;;;6188384;23;20008;-70
2022/03/31 05:34:21;;;;;;;14.75;11.32;;;3.10;99.90;;;;;;6163292;23;20044;-71
2022/03/31 05:36:49;;;;;;;13.43;11.07;;;3.00;99.90;;;;;;6188291;23;20012;-71
2022/03/31 05:39:15;;;;;;;15.15;11.77;;;3.00;99.90;;;;;;6188070;23;20035;-70
2022/03/31 06:02:24;;;;;;;17.10;12.10;;;3.10;99.90;;;;;;6243604;23;20073;-69
2022/03/31 06:04:50;;;;;;;13.50;11.18;;;3.00;99.90;;;;;;6219935;23;20020;-70
2022/03/31 06:07:17;;;;;;;14.23;11.60;;;3.10;99.90;;;;;;6194718;23;20004;-69
2022/03/31 06:09:43;;;;;;;15.00;11.77;;;3.00;99.90;;;;;;6194681;23;20017;-69
2022/03/31 06:12:10;;;;;;;12.55;10.90;;;3.00;99.90;;;;;;6194872;23;20020;-69
2022/03/31 06:14:35;;;;;;;14.77;11.82;;;3.00;99.90;;;;;;6194876;23;19997;-70
2022/03/31 06:17:02;;;;;;;14.80;12.20;;;3.00;99.90;;;;;;6219611;23;20024;-69
2022/03/31 06:19:28;;;;;;;15.52;11.65;;;3.00;99.90;;;;;;6194996;23;20017;-69
2022/03/31 06:21:53;;;;;;;16.05;12.48;;;3.00;99.90;;;;;;6194334;23;20030;-72
2022/03/31 06:45:05;;;;;;;17.15;13.45;;;3.00;99.90;;;;;;6242501;23;20017;-70
2022/03/31 06:47:31;;;;;;;18.77;13.70;;;3.00;99.90;;;;;;6215304;23;20016;-70
2022/03/31 06:49:57;;;;;;;15.63;12.80;;;3.00;99.90;;;;;;6245076;23;20024;-69
2022/03/31 06:52:23;;;;;;;16.65;13.25;;;3.00;99.90;;;;;;6194103;23;20521;-70
2022/03/31 06:54:49;;;;;;;17.67;13.63;;;2.90;99.90;;;;;;6218703;23;20027;-70
2022/03/31 06:57:15;;;;;;;19.80;14.32;;;2.90;99.90;;;;;;6193881;22;20001;-69
2022/03/31 06:59:41;;;;;;;17.55;13.65;;;2.90;99.90;;;;;;6144217;23;20051;-70
2022/03/31 07:02:08;;;;;;;18.88;14.55;;;3.00;99.90;;;;;;6188762;23;20017;-69
2022/03/31 07:04:35;;;;;;;18.58;14.55;;;3.00;99.90;;;;;;6188643;23;20028;-70
2022/03/31 07:07:00;;;;;;;18.33;14.20;;;3.00;99.90;;;;;;6189067;23;20044;-70
2022/03/31 07:09:28;;;;;;;19.15;14.63;;;3.10;99.90;;;;;;6164508;23;20008;-68
2022/03/31 07:11:55;;;;;;;20.52;15.25;;;3.10;99.90;;;;;;6189142;23;20065;-69
2022/03/31 07:14:21;;;;;;;19.95;15.40;;;3.10;99.90;;;;;;6188880;23;20017;-70
2022/03/31 07:16:47;;;;;;;19.20;14.98;;;3.10;99.90;;;;;;6164503;23;20071;-70
2022/03/31 07:19:13;;;;;;;20.15;15.63;;;3.10;99.90;;;;;;6164271;23;20017;-69
2022/03/31 07:21:39;;;;;;;20.40;15.90;;;3.10;99.90;;;;;;6188971;23;20362;-70
2022/03/31 07:24:05;;;;;;;23.38;16.15;;;3.20;99.90;;;;;;6188416;23;20012;-70
2022/03/31 07:26:31;;;;;;;21.52;16.50;;;3.10;99.90;;;;;;6163800;23;20032;-71
2022/03/31 07:28:57;;;;;;;23.15;17.65;;;3.20;99.90;;;;;;6188558;23;20021;-70
2022/03/31 07:31:28;;;;;;;22.55;16.40;;;3.20;99.90;;;;;;6164074;23;20017;-68
2022/03/31 07:33:56;;;;;;;21.50;15.88;;;3.10;99.90;;;;;;6189165;23;20024;-70
2022/03/31 07:36:22;;;;;;;22.85;16.83;;;3.10;99.90;;;;;;6188783;23;20005;-70
2022/03/31 07:38:48;;;;;;;25.73;17.98;;;3.10;99.90;;;;;;6164658;23;20031;-71
2022/03/31 07:41:15;;;;;;;25.15;18.58;;;3.10;99.90;;;;;;6163963;23;20001;-69
2022/03/31 07:43:42;;;;;;;24.65;18.23;;;3.10;99.90;;;;;;6167789;23;20087;-69
2022/03/31 07:46:08;;;;;;;26.08;18.45;;;3.10;99.90;;;;;;6189028;23;20021;-69
2022/03/31 07:48:33;;;;;;;26.95;19.55;;;3.10;99.90;;;;;;6188714;23;20087;-70
2022/03/31 07:50:59;;;;;;;26.42;18.02;;;3.10;99.90;;;;;;6188119;23;20012;-68
2022/03/31 07:53:26;;;;;;;25.13;18.50;;;3.10;99.90;;;;;;6188592;23;20024;-68
2022/03/31 07:55:54;;;;;;;28.08;19.88;;;3.10;99.90;;;;;;6213332;23;20004;-70
2022/03/31 07:58:20;;;;;;;25.70;19.27;;;3.10;99.90;;;;;;6213685;23;20045;-69
2022/03/31 08:00:50;;;;;;;27.38;19.33;;;3.10;99.90;;;;;;6188213;23;20398;-70
2022/03/31 08:03:18;;;;;;;28.50;20.10;;;3.20;99.90;;;;;;6213713;23;20017;-70
2022/03/31 08:05:45;;;;;;;29.10;20.08;;;3.20;99.90;;;;;;6212874;23;20017;-69
2022/03/31 08:08:14;;;;;;;27.85;19.25;;;3.20;99.90;;;;;;6213890;23;20013;-69
2022/03/31 08:10:40;;;;;;;28.30;19.90;;;3.30;99.90;;;;;;6214043;23;20028;-71
2022/03/31 08:13:06;;;;;;;27.48;19.50;;;3.30;99.90;;;;;;6188097;23;20001;-70
2022/03/31 08:15:32;;;;;;;27.80;19.58;;;3.30;99.90;;;;;;6213230;23;19997;-69
2022/03/31 08:17:59;;;;;;;29.02;20.20;;;3.40;99.90;;;;;;6213815;23;20047;-68
2022/03/31 08:20:25;;;;;;;28.48;20.15;;;3.40;99.90;;;;;;6188847;23;20008;-70
2022/03/31 08:22:51;;;;;;;28.77;20.83;;;3.40;99.90;;;;;;6188726;23;20017;-69
2022/03/31 08:25:17;;;;;;;29.42;20.25;;;3.40;99.90;;;;;;6213947;23;20094;-70
2022/03/31 08:27:44;;;;;;;30.70;21.50;;;3.40;99.90;;;;;;6188232;23;20013;-70
2022/03/31 08:30:19;;;;;;;27.33;21.08;;;3.40;99.90;;;;;;6213068;23;20028;-70
2022/03/31 08:32:46;;;;;;;31.73;21.30;;;3.40;99.90;;;;;;6214002;23;20001;-69
2022/03/31 08:35:13;;;;;;;29.98;21.80;;;3.40;99.90;;;;;;6188849;23;20013;-70
2022/03/31 08:37:40;;;;;;;29.73;22.30;;;3.40;99.90;;;;;;6187976;23;20009;-70
2022/03/31 10:42:08;;;;;;;5.50;4.55;;;2.40;99.90;;;;;;6236847;23;20008;-69
2022/03/31 10:44:34;;;;;;;5.57;4.57;;;2.40;99.90;;;;;;6245058;22;20020;-69
2022/03/31 10:47:02;;;;;;;5.35;4.47;;;2.40;99.90;;;;;;6218990;23;20024;-69
2022/03/31 10:49:29;;;;;;;5.55;4.95;;;2.30;99.90;;;;;;6194019;23;20015;-68
2022/03/31 10:51:55;;;;;;;5.93;4.90;;;2.30;99.90;;;;;;6194264;23;20055;-68
2022/03/31 10:54:31;;;;;;;6.40;5.10;;;2.30;99.90;;;;;;6194305;23;20017;-68
2022/03/31 10:57:15;;;;;;;6.00;5.00;;;2.30;99.90;;;;;;6219553;23;20000;-70
2022/03/31 10:59:43;;;;;;;6.07;5.15;;;2.30;99.90;;;;;;6190128;23;20000;-70
2022/03/31 11:02:15;;;;;;;5.35;4.70;;;2.30;99.90;;;;;;6169414;23;20001;-68
2022/03/31 11:04:58;;;;;;;5.38;4.57;;;2.30;99.90;;;;;;6193668;23;20032;-69
2022/03/31 11:07:25;;;;;;;6.05;5.05;;;2.30;99.90;;;;;;6219110;23;20011;-69
2022/03/31 11:10:13;;;;;;;5.47;4.75;;;2.30;99.90;;;;;;6218797;23;20026;-69
2022/03/31 11:12:41;;;;;;;5.60;5.00;;;2.30;99.90;;;;;;6194083;23;20035;-68
2022/03/31 11:15:12;;;;;;;6.10;4.88;;;2.30;99.90;;;;;;6218760;23;20004;-70
2022/03/31 11:17:42;;;;;;;5.65;5.05;;;2.30;99.90;;;;;;6193925;23;20007;-69
2022/03/31 11:20:14;;;;;;;5.97;5.38;;;2.30;99.90;;;;;;6193815;23;20023;-70
2022/03/31 11:22:47;;;;;;;6.38;5.30;;;2.30;99.90;;;;;;6193739;23;19996;-69
2022/03/31 11:25:13;;;;;;;6.20;5.30;;;2.30;99.90;;;;;;6194103;23;20008;-69
2022/03/31 11:27:41;;;;;;;7.65;6.13;;;2.30;99.90;;;;;;6218661;22;20024;-69
2022/03/31 11:30:11;;;;;;;7.22;6.05;;;2.30;99.90;;;;;;6218751;23;20013;-70
2022/03/31 11:32:38;;;;;;;8.52;6.22;;;2.30;99.90;;;;;;6218664;23;20064;-69
2022/03/31 11:35:15;;;;;;;7.25;6.30;;;2.40;99.90;;;;;;6193859;23;20059;-73
2022/03/31 11:37:57;;;;;;;7.30;6.07;;;2.40;99.90;;;;;;6194359;23;20028;-69
2022/03/31 11:40:44;;;;;;;8.20;6.97;;;2.50;99.90;;;;;;6245299;22;20013;-74
2022/03/31 12:01:22;;;;;;;11.93;9.43;;;2.60;99.90;;;;;;6216815;23;20025;-70
2022/03/31 12:03:48;;;;;;;12.90;10.30;;;2.60;99.90;;;;;;6139949;23;20021;-69
2022/03/31 12:06:16;;;;;;;14.32;11.30;;;2.60;99.90;;;;;;6188080;23;20021;-69
2022/03/31 12:08:43;;;;;;;14.75;11.27;;;2.70;99.90;;;;;;6188985;23;20017;-69
2022/03/31 12:11:12;;;;;;;15.43;11.75;;;2.70;99.90;;;;;;6163939;23;20028;-72
2022/03/31 12:13:53;;;;;;;16.45;12.50;;;2.70;99.90;;;;;;6188619;23;20013;-71
2022/03/31 12:16:21;;;;;;;17.02;12.27;;;2.70;99.90;;;;;;6160183;23;20433;-70
2022/03/31 12:18:58;;;;;;;17.15;13.07;;;2.70;99.90;;;;;;6163708;23;20449;-69
2022/03/31 12:21:27;;;;;;;19.52;14.35;;;2.70;99.90;;;;;;6163847;23;20042;-72
2022/03/31 12:24:03;;;;;;;19.38;13.80;;;2.70;99.90;;;;;;6187937;23;20044;-71
2022/03/31 12:26:29;;;;;;;19.45;14.55;;;2.80;99.90;;;;;;6188312;23;20045;-71
2022/03/31 12:28:58;;;;;;;23.25;15.43;;;2.80;99.90;;;;;;6163614;23;20011;-70
2022/03/31 12:31:33;;;;;;;20.70;15.60;;;2.80;99.90;;;;;;6188808;23;20021;-69
2022/03/31 12:34:03;;;;;;;21.77;15.63;;;2.80;99.90;;;;;;6140279;23;20066;-72
2022/03/31 12:36:34;;;;;;;24.70;17.33;;;2.80;99.90;;;;;;6163871;23;19997;-68
2022/03/31 12:54:36;;;;;;;36.55;22.67;;;3.10;99.90;;;;;;6243661;22;20084;-68
2022/03/31 12:57:06;;;;;;;37.67;23.70;;;3.10;99.90;;;;;;6218383;23;20008;-70
2022/03/31 15:54:48;;;;;;;11.77;8.52;;;4.10;99.90;;;;;;6235187;23;20040;-70
2022/03/31 15:57:14;;;;;;;11.75;8.60;;;4.00;99.90;;;;;;6164303;23;20045;-70
2022/03/31 15:59:42;;;;;;;12.52;8.75;;;4.10;99.90;;;;;;6164378;23;20009;-70
2022/03/31 16:02:09;;;;;;;11.55;8.95;;;4.10;99.90;;;;;;6214831;23;20017;-70
2022/03/31 16:04:36;;;;;;;12.10;7.90;;;4.10;99.90;;;;;;6188820;23;20021;-70
2022/03/31 16:07:03;;;;;;;11.27;8.25;;;4.10;99.90;;;;;;6188389;23;20024;-70
2022/03/31 16:09:29;;;;;;;12.25;7.78;;;4.10;99.90;;;;;;6188855;23;20017;-70
2022/03/31 16:11:59;;;;;;;10.77;7.53;;;4.10;99.90;;;;;;6188512;23;20017;-70
2022/03/31 16:14:25;;;;;;;;;;;4.10;99.90;;;;;;6214983;23;20019;-70
2022/03/31 16:16:52;;;;;;;11.27;7.65;;;4.10;99.90;;;;;;6163512;23;20035;-70
2022/03/31 16:19:22;;;;;;;10.23;7.57;;;4.10;99.90;;;;;;6189017;23;20000;-69
2022/03/31 16:52:53;;;;;;;9.90;6.85;;;4.20;99.90;;;;;;6179930;23;20090;-70
2022/03/31 17:34:12;;;;;;;8.52;5.47;;;4.10;99.90;;;;;;6234118;22;20014;-70
2022/03/31 18:12:57;;;;;;;4.30;3.20;;;4.00;99.90;;;;;;6209629;22;20034;-69
2022/03/31 18:15:24;;;;;;;3.92;2.95;;;4.00;99.90;;;;;;6219718;23;20093;-70
2022/03/31 18:17:51;;;;;;;6.45;2.55;;;3.90;99.90;;;;;;6194759;23;20004;-69
2022/03/31 18:20:18;;;;;;;6.38;2.40;;;3.90;99.90;;;;;;6194703;23;20043;-70
2022/03/31 18:22:46;;;;;;;4.57;2.35;;;4.00;99.90;;;;;;6194906;23;20020;-72
2022/03/31 22:37:41;;;;;;;4.78;3.20;;;0.90;99.90;;;;;;6214017;23;20009;-69
2022/03/31 22:40:10;;;;;;;5.10;3.35;;;0.80;99.90;;;;;;6189407;23;20028;-70
2022/03/31 22:42:37;;;;;;;;;;;0.90;99.90;;;;;;6215610;23;20024;-69
2022/03/31 22:45:04;;;;;;;6.20;3.30;;;0.80;99.90;;;;;;6165363;23;19900;-69
2022/03/31 22:47:30;;;;;;;4.57;3.03;;;0.80;99.90;;;;;;6165490;23;20008;-70
2022/03/31 22:49:56;;;;;;;4.53;3.28;;;0.80;99.90;;;;;;6165501;23;20023;-69
2022/03/31 22:52:22;;;;;;;8.80;3.50;;;0.80;99.90;;;;;;6165594;23;20021;-69
2022/03/31 23:36:14;;;;;;;5.57;3.00;;;0.60;99.90;;;;;;6230946;22;20016;-70
2022/03/31 23:38:41;;;;;;;5.10;3.22;;;0.60;99.90;;;;;;6218215;23;20017;-71
2022/03/31 23:41:07;;;;;;;4.45;2.85;;;0.60;99.90;;;;;;6218896;23;20012;-70
2022/03/31 23:43:34;;;;;;;4.97;2.97;;;0.60;99.90;;;;;;6192902;23;20013;-69
2022/03/31 23:46:00;;;;;;;5.72;3.10;;;0.60;99.90;;;;;;6193523;23;20028;-70
2022/03/31 23:48:26;;;;;;;5.95;3.25;;;0.60;99.90;;;;;;6193472;23;20004;-71
2022/03/31 23:50:52;;;;;;;6.03;3.25;;;0.60;99.90;;;;;;6193395;23;20016;-70
2022/03/31 23:53:18;;;;;;;6.20;3.10;;;0.60;99.90;;;;;;6217920;23;20043;-71
2022/03/31 23:55:45;;;;;;;5.30;2.60;;;0.60;99.90;;;;;;6183125;23;20037;-71
2022/03/31 23:58:11;;;;;;;8.13;3.10;;;0.60;99.90;;;;;;6182542;23;20082;-70
